Sea Thames — V2BV1 — position and weather

sailwx.info

Track history (hours):
 
Tides and Currents Weather Stations Pressure Air Temp Water Temp Dewpoint Dewpoint Depression Visibility Wind Speed Wind Dir Waves Ship Positions

Sea Thames

Last reported at 2014-Oct-31 04:33 UTC. Time now 2014-Oct-31 05:47 UTC.
Position N 55°59' W 004°57'.

Length 87 m; draft 3.4 m.

Type: Cargo ship. MMSI: 304933000.

Date/timePositionNaut miles runAvg speedWind from/ knotsBaromVisibWave heightAir tempDewpointWater temp
2014-Oct-31 04:33N 55°59' W 004°57'0 0.0
2014-Oct-31 03:33N 55°59' W 004°57'0 0.0
2014-Oct-31 02:33N 55°59' W 004°57'0 0.0
2014-Oct-31 01:33N 55°59' W 004°57'0 0.0
2014-Oct-31 00:33N 55°59' W 004°57'0 0.0
2014-Oct-30 23:30N 55°59' W 004°57'0 0.0
2014-Oct-30 22:33N 55°59' W 004°57'0 0.0
2014-Oct-30 21:33N 55°59' W 004°57'0 0.0
2014-Oct-30 20:33N 55°59' W 004°57'0 0.0
2014-Oct-30 19:33N 55°59' W 004°57'0 0.0
2014-Oct-30 18:33N 55°59' W 004°57'0 0.0
2014-Oct-30 17:33N 55°59' W 004°57'0 0.0
2014-Oct-30 16:33N 55°59' W 004°57'0 0.0
2014-Oct-30 15:33N 55°59' W 004°57'0 0.0
2014-Oct-30 14:33N 55°59' W 004°57'0 0.0
2014-Oct-30 13:33N 55°59' W 004°57'0 0.0
2014-Oct-30 12:33N 55°59' W 004°57'0 0.0
2014-Oct-30 11:33N 55°59' W 004°57'0 0.0
2014-Oct-30 10:33N 55°59' W 004°57'0 0.0
2014-Oct-30 09:33N 55°59' W 004°57'0 0.0
2014-Oct-30 08:33N 55°59' W 004°57'0 0.0
2014-Oct-30 07:33N 55°59' W 004°57'0 0.0
2014-Oct-30 06:33N 55°59' W 004°57'0 0.0
2014-Oct-30 05:33N 55°59' W 004°57'0 0.0
2014-Oct-30 04:33N 55°59' W 004°57'0 0.0
2014-Oct-30 03:33N 55°59' W 004°57'0 0.0
2014-Oct-30 02:33N 55°59' W 004°57'0 0.0
2014-Oct-30 01:33N 55°59' W 004°57'0 0.0
2014-Oct-30 00:33N 55°59' W 004°57'0 0.0
2014-Oct-29 23:33N 55°59' W 004°57'0 0.0
2014-Oct-29 22:33N 55°59' W 004°57'0 0.0
2014-Oct-29 21:27N 55°59' W 004°57'0 0.0
2014-Oct-29 20:33N 55°59' W 004°57'0 0.0
2014-Oct-29 19:33N 55°59' W 004°57'0 0.0
2014-Oct-29 18:33N 55°59' W 004°57'4 4.1
2014-Oct-29 17:34N 55°55' W 004°55'9 8.4
2014-Oct-29 16:32N 55°47' W 004°58'9 9.1
2014-Oct-29 15:32N 55°38' W 004°59'39 9.8
2014-Oct-29 11:33N 54°60' W 005°16'8 8.2
2014-Oct-29 10:33N 54°52' W 005°17'9 8.6
2014-Oct-29 09:33N 54°43' W 005°18'9 9.2
2014-Oct-29 08:34N 54°34' W 005°19'10 9.5
2014-Oct-29 07:31N 54°24' W 005°21'11 9.4
2014-Oct-29 06:19N 54°14' W 005°28'19 9.2
2014-Oct-29 04:18N 54°01' W 005°51'7 9.4
2014-Oct-29 03:33N 53°57' W 006°01'8 8.3
2014-Oct-29 02:34N 53°57' W 006°15'6 5.6
2014-Oct-29 01:34N 54°00' W 006°23'0 0.1
2014-Oct-29 00:05N 54°00' W 006°23'0 0.0
2014-Oct-28 23:29N 54°00' W 006°23'0 0.0
2014-Oct-28 22:29N 54°00' W 006°23'0 0.0
2014-Oct-28 21:17N 54°00' W 006°23'0 0.0
2014-Oct-28 20:29N 54°00' W 006°23'0 0.0
2014-Oct-28 19:29N 54°00' W 006°23'0 0.0
2014-Oct-28 18:17N 54°00' W 006°23'0 0.0
2014-Oct-28 17:29N 54°00' W 006°23'0 0.0
2014-Oct-28 16:29N 54°00' W 006°23'0 0.0
2014-Oct-28 15:17N 54°00' W 006°23'0 0.0
2014-Oct-28 14:32N 54°00' W 006°23'0 0.0
2014-Oct-28 13:32N 54°00' W 006°23'0 0.0
2014-Oct-28 12:29N 54°00' W 006°23'0 0.0
2014-Oct-28 11:20N 54°00' W 006°23'0 0.0
2014-Oct-28 10:11N 54°00' W 006°23'0 0.0
2014-Oct-28 08:29N 54°00' W 006°23'0 0.0
2014-Oct-28 07:20N 54°00' W 006°23'0 0.0
2014-Oct-28 06:29N 54°00' W 006°23'0 0.0
2014-Oct-28 04:17N 54°00' W 006°23'0 0.0
2014-Oct-28 03:05N 54°00' W 006°23'0 0.0
2014-Oct-28 02:26N 54°00' W 006°23'0 0.0
2014-Oct-28 01:17N 54°00' W 006°23'0 0.0
2014-Oct-28 00:32N 54°00' W 006°23'0 0.0
2014-Oct-27 22:17N 54°00' W 006°23'0 0.0
2014-Oct-27 20:29N 54°00' W 006°23'0 0.0
2014-Oct-27 19:17N 54°00' W 006°23'0 0.0
2014-Oct-27 18:05N 54°00' W 006°23'0 0.0
2014-Oct-27 17:23N 54°00' W 006°23'0 0.0
2014-Oct-27 16:11N 54°00' W 006°23'0 0.0
2014-Oct-27 15:32N 54°00' W 006°23'0 0.0
2014-Oct-27 14:33N 54°00' W 006°23'3 2.7
2014-Oct-27 13:33N 53°59' W 006°19'8 8.1
2014-Oct-27 12:33N 53°54' W 006°08'248 5.5
2014-Oct-25 15:34N 50°06' W 003°31'10 9.6
2014-Oct-25 14:33N 50°08' W 003°16'141 8.3
2014-Oct-24 21:33N 50°37' E 000°21'6 5.5
2014-Oct-24 20:33N 50°38' E 000°29'6 5.9
2014-Oct-24 19:33N 50°40' E 000°38'7 6.8
2014-Oct-24 18:34N 50°44' E 000°46'18 8.0
2014-Oct-24 16:18N 50°55' E 001°09'6 8.2
2014-Oct-24 15:32N 50°59' E 001°17'7 7.2
2014-Oct-24 14:34N 51°04' E 001°25'6 5.6
2014-Oct-24 13:34N 51°07' E 001°33'5 4.7
2014-Oct-24 12:33N 51°10' E 001°39'5 5.1
2014-Oct-24 11:34N 51°13' E 001°45'7 6.6
2014-Oct-24 10:33N 51°19' E 001°49'9 9.2
2014-Oct-24 09:33N 51°27' E 001°57'70 7.0
2014-Oct-23 23:32N 52°03' E 003°34'7 6.8
2014-Oct-23 22:33N 52°03' E 003°45'8 8.1
2014-Oct-23 21:33N 52°02' E 003°58'10 9.6
2014-Oct-23 20:34N 51°57' E 004°11'9 8.8
2014-Oct-23 19:34N 51°54' E 004°24'3 2.8
2014-Oct-23 18:28N 51°54' E 004°29'0 0.0
2014-Oct-23 17:32N 51°54' E 004°29'4 4.4
2014-Oct-23 16:33N 51°54' E 004°22'1 0.6
2014-Oct-23 15:33N 51°54' E 004°21'0 0.0
2014-Oct-23 14:31N 51°54' E 004°21'0 0.0
2014-Oct-23 13:28N 51°54' E 004°21'0 0.0
2014-Oct-23 12:33N 51°54' E 004°21'0 0.0
2014-Oct-23 11:34N 51°54' E 004°21'0 0.0
2014-Oct-23 10:33N 51°54' E 004°21'0 0.0
2014-Oct-23 09:34N 51°54' E 004°21'0 0.0
2014-Oct-23 08:34N 51°54' E 004°21'0 0.0
2014-Oct-23 07:33N 51°54' E 004°21'2 2.1
2014-Oct-23 06:33N 51°54' E 004°18'6 5.9
2014-Oct-23 05:33N 51°57' E 004°10'6 6.1
2014-Oct-23 04:33N 51°60' E 004°01'10 9.4
2014-Oct-23 03:32N 51°59' E 003°46'84 9.2
2014-Oct-22 18:27N 52°54' E 002°00'1010.8
2014-Oct-22 17:33N 52°58' E 001°46'1010.0
2014-Oct-22 16:33N 53°03' E 001°32'40 7.9
2014-Oct-22 11:29N 53°27' E 000°39'6 5.9
2014-Oct-22 10:33N 53°30' E 000°30'8 8.3
2014-Oct-22 09:33N 53°32' E 000°17'1110.7
2014-Oct-22 08:33N 53°35' W 000°00'1212.3
2014-Oct-22 07:33N 53°43' W 000°16'1110.9
2014-Oct-22 06:34N 53°42' W 000°34'  
Track history (hours):
 
Tides and Currents Weather Stations Pressure Air Temp Water Temp Dewpoint Dewpoint Depression Visibility Wind Speed Wind Dir Waves Ship Positions

Sea Thames

Last reported at 2014-Oct-31 04:33 UTC. Time now 2014-Oct-31 05:47 UTC.
Position N 55°59' W 004°57'.

Length 87 m; draft 3.4 m.

Type: Cargo ship. MMSI: 304933000.

Date/timePositionNaut miles runAvg speedWind from/ knotsBaromVisibWave heightAir tempDewpointWater temp
2014-Oct-31 04:33N 55°59' W 004°57'0 0.0
2014-Oct-31 03:33N 55°59' W 004°57'0 0.0
2014-Oct-31 02:33N 55°59' W 004°57'0 0.0
2014-Oct-31 01:33N 55°59' W 004°57'0 0.0
2014-Oct-31 00:33N 55°59' W 004°57'0 0.0
2014-Oct-30 23:30N 55°59' W 004°57'0 0.0
2014-Oct-30 22:33N 55°59' W 004°57'0 0.0
2014-Oct-30 21:33N 55°59' W 004°57'0 0.0
2014-Oct-30 20:33N 55°59' W 004°57'0 0.0
2014-Oct-30 19:33N 55°59' W 004°57'0 0.0
2014-Oct-30 18:33N 55°59' W 004°57'0 0.0
2014-Oct-30 17:33N 55°59' W 004°57'0 0.0
2014-Oct-30 16:33N 55°59' W 004°57'0 0.0
2014-Oct-30 15:33N 55°59' W 004°57'0 0.0
2014-Oct-30 14:33N 55°59' W 004°57'0 0.0
2014-Oct-30 13:33N 55°59' W 004°57'0 0.0
2014-Oct-30 12:33N 55°59' W 004°57'0 0.0
2014-Oct-30 11:33N 55°59' W 004°57'0 0.0
2014-Oct-30 10:33N 55°59' W 004°57'0 0.0
2014-Oct-30 09:33N 55°59' W 004°57'0 0.0
2014-Oct-30 08:33N 55°59' W 004°57'0 0.0
2014-Oct-30 07:33N 55°59' W 004°57'0 0.0
2014-Oct-30 06:33N 55°59' W 004°57'0 0.0
2014-Oct-30 05:33N 55°59' W 004°57'0 0.0
2014-Oct-30 04:33N 55°59' W 004°57'0 0.0
2014-Oct-30 03:33N 55°59' W 004°57'0 0.0
2014-Oct-30 02:33N 55°59' W 004°57'0 0.0
2014-Oct-30 01:33N 55°59' W 004°57'0 0.0
2014-Oct-30 00:33N 55°59' W 004°57'0 0.0
2014-Oct-29 23:33N 55°59' W 004°57'0 0.0
2014-Oct-29 22:33N 55°59' W 004°57'0 0.0
2014-Oct-29 21:27N 55°59' W 004°57'0 0.0
2014-Oct-29 20:33N 55°59' W 004°57'0 0.0
2014-Oct-29 19:33N 55°59' W 004°57'0 0.0
2014-Oct-29 18:33N 55°59' W 004°57'4 4.1
2014-Oct-29 17:34N 55°55' W 004°55'9 8.4
2014-Oct-29 16:32N 55°47' W 004°58'9 9.1
2014-Oct-29 15:32N 55°38' W 004°59'39 9.8
2014-Oct-29 11:33N 54°60' W 005°16'8 8.2
2014-Oct-29 10:33N 54°52' W 005°17'9 8.6
2014-Oct-29 09:33N 54°43' W 005°18'9 9.2
2014-Oct-29 08:34N 54°34' W 005°19'10 9.5
2014-Oct-29 07:31N 54°24' W 005°21'11 9.4
2014-Oct-29 06:19N 54°14' W 005°28'19 9.2
2014-Oct-29 04:18N 54°01' W 005°51'7 9.4
2014-Oct-29 03:33N 53°57' W 006°01'8 8.3
2014-Oct-29 02:34N 53°57' W 006°15'6 5.6
2014-Oct-29 01:34N 54°00' W 006°23'0 0.1
2014-Oct-29 00:05N 54°00' W 006°23'0 0.0
2014-Oct-28 23:29N 54°00' W 006°23'0 0.0
2014-Oct-28 22:29N 54°00' W 006°23'0 0.0
2014-Oct-28 21:17N 54°00' W 006°23'0 0.0
2014-Oct-28 20:29N 54°00' W 006°23'0 0.0
2014-Oct-28 19:29N 54°00' W 006°23'0 0.0
2014-Oct-28 18:17N 54°00' W 006°23'0 0.0
2014-Oct-28 17:29N 54°00' W 006°23'0 0.0
2014-Oct-28 16:29N 54°00' W 006°23'0 0.0
2014-Oct-28 15:17N 54°00' W 006°23'0 0.0
2014-Oct-28 14:32N 54°00' W 006°23'0 0.0
2014-Oct-28 13:32N 54°00' W 006°23'0 0.0
2014-Oct-28 12:29N 54°00' W 006°23'0 0.0
2014-Oct-28 11:20N 54°00' W 006°23'0 0.0
2014-Oct-28 10:11N 54°00' W 006°23'0 0.0
2014-Oct-28 08:29N 54°00' W 006°23'0 0.0
2014-Oct-28 07:20N 54°00' W 006°23'0 0.0
2014-Oct-28 06:29N 54°00' W 006°23'0 0.0
2014-Oct-28 04:17N 54°00' W 006°23'0 0.0
2014-Oct-28 03:05N 54°00' W 006°23'0 0.0
2014-Oct-28 02:26N 54°00' W 006°23'0 0.0
2014-Oct-28 01:17N 54°00' W 006°23'0 0.0
2014-Oct-28 00:32N 54°00' W 006°23'0 0.0
2014-Oct-27 22:17N 54°00' W 006°23'0 0.0
2014-Oct-27 20:29N 54°00' W 006°23'0 0.0
2014-Oct-27 19:17N 54°00' W 006°23'0 0.0
2014-Oct-27 18:05N 54°00' W 006°23'0 0.0
2014-Oct-27 17:23N 54°00' W 006°23'0 0.0
2014-Oct-27 16:11N 54°00' W 006°23'0 0.0
2014-Oct-27 15:32N 54°00' W 006°23'0 0.0
2014-Oct-27 14:33N 54°00' W 006°23'3 2.7
2014-Oct-27 13:33N 53°59' W 006°19'8 8.1
2014-Oct-27 12:33N 53°54' W 006°08'248 5.5
2014-Oct-25 15:34N 50°06' W 003°31'10 9.6
2014-Oct-25 14:33N 50°08' W 003°16'141 8.3
2014-Oct-24 21:33N 50°37' E 000°21'6 5.5
2014-Oct-24 20:33N 50°38' E 000°29'6 5.9
2014-Oct-24 19:33N 50°40' E 000°38'7 6.8
2014-Oct-24 18:34N 50°44' E 000°46'18 8.0
2014-Oct-24 16:18N 50°55' E 001°09'6 8.2
2014-Oct-24 15:32N 50°59' E 001°17'7 7.2
2014-Oct-24 14:34N 51°04' E 001°25'6 5.6
2014-Oct-24 13:34N 51°07' E 001°33'5 4.7
2014-Oct-24 12:33N 51°10' E 001°39'5 5.1
2014-Oct-24 11:34N 51°13' E 001°45'7 6.6
2014-Oct-24 10:33N 51°19' E 001°49'9 9.2
2014-Oct-24 09:33N 51°27' E 001°57'70 7.0
2014-Oct-23 23:32N 52°03' E 003°34'7 6.8
2014-Oct-23 22:33N 52°03' E 003°45'8 8.1
2014-Oct-23 21:33N 52°02' E 003°58'10 9.6
2014-Oct-23 20:34N 51°57' E 004°11'9 8.8
2014-Oct-23 19:34N 51°54' E 004°24'3 2.8
2014-Oct-23 18:28N 51°54' E 004°29'0 0.0
2014-Oct-23 17:32N 51°54' E 004°29'4 4.4
2014-Oct-23 16:33N 51°54' E 004°22'1 0.6
2014-Oct-23 15:33N 51°54' E 004°21'0 0.0
2014-Oct-23 14:31N 51°54' E 004°21'0 0.0
2014-Oct-23 13:28N 51°54' E 004°21'0 0.0
2014-Oct-23 12:33N 51°54' E 004°21'0 0.0
2014-Oct-23 11:34N 51°54' E 004°21'0 0.0
2014-Oct-23 10:33N 51°54' E 004°21'0 0.0
2014-Oct-23 09:34N 51°54' E 004°21'0 0.0
2014-Oct-23 08:34N 51°54' E 004°21'0 0.0
2014-Oct-23 07:33N 51°54' E 004°21'2 2.1
2014-Oct-23 06:33N 51°54' E 004°18'6 5.9
2014-Oct-23 05:33N 51°57' E 004°10'6 6.1
2014-Oct-23 04:33N 51°60' E 004°01'10 9.4
2014-Oct-23 03:32N 51°59' E 003°46'84 9.2
2014-Oct-22 18:27N 52°54' E 002°00'1010.8
2014-Oct-22 17:33N 52°58' E 001°46'1010.0
2014-Oct-22 16:33N 53°03' E 001°32'40 7.9
2014-Oct-22 11:29N 53°27' E 000°39'6 5.9
2014-Oct-22 10:33N 53°30' E 000°30'8 8.3
2014-Oct-22 09:33N 53°32' E 000°17'1110.7
2014-Oct-22 08:33N 53°35' W 000°00'1212.3
2014-Oct-22 07:33N 53°43' W 000°16'1110.9
2014-Oct-22 06:34N 53°42' W 000°34'  

Dump ship's entire track history